sensor_id;sensor_type;location;lat;lon;timestamp;P1;durP1;ratioP1;P2;durP2;ratioP2
5245;SDS011;54412;51.206;6.888;2024-01-07T00:02:10;24.03;;;17.00;;
5245;SDS011;54412;51.206;6.888;2024-01-07T00:04:36;20.07;;;14.93;;
5245;SDS011;54412;51.206;6.888;2024-01-07T00:07:02;20.77;;;14.67;;
5245;SDS011;54412;51.206;6.888;2024-01-07T00:09:29;20.93;;;15.67;;
5245;SDS011;54412;51.206;6.888;2024-01-07T00:11:55;22.10;;;15.67;;
5245;SDS011;54412;51.206;6.888;2024-01-07T00:14:21;19.27;;;14.90;;
5245;SDS011;54412;51.206;6.888;2024-01-07T00:16:46;18.50;;;14.53;;
5245;SDS011;54412;51.206;6.888;2024-01-07T00:19:12;18.67;;;15.57;;
5245;SDS011;54412;51.206;6.888;2024-01-07T00:21:38;20.20;;;14.83;;
5245;SDS011;54412;51.206;6.888;2024-01-07T00:24:04;19.53;;;14.57;;
5245;SDS011;54412;51.206;6.888;2024-01-07T00:26:30;17.70;;;13.33;;
5245;SDS011;54412;51.206;6.888;2024-01-07T00:28:55;16.20;;;12.50;;
5245;SDS011;54412;51.206;6.888;2024-01-07T00:31:21;15.80;;;13.00;;
5245;SDS011;54412;51.206;6.888;2024-01-07T00:33:47;16.63;;;13.00;;
5245;SDS011;54412;51.206;6.888;2024-01-07T00:36:12;16.77;;;12.77;;
5245;SDS011;54412;51.206;6.888;2024-01-07T00:38:38;16.73;;;12.90;;
5245;SDS011;54412;51.206;6.888;2024-01-07T00:41:04;14.30;;;12.30;;
5245;SDS011;54412;51.206;6.888;2024-01-07T00:43:29;13.77;;;12.27;;
5245;SDS011;54412;51.206;6.888;2024-01-07T00:45:55;16.70;;;12.10;;
5245;SDS011;54412;51.206;6.888;2024-01-07T00:48:21;29.07;;;19.87;;
5245;SDS011;54412;51.206;6.888;2024-01-07T00:50:47;15.20;;;12.43;;
5245;SDS011;54412;51.206;6.888;2024-01-07T00:53:13;15.07;;;12.03;;
5245;SDS011;54412;51.206;6.888;2024-01-07T00:55:38;13.77;;;10.80;;
5245;SDS011;54412;51.206;6.888;2024-01-07T00:58:04;14.00;;;11.60;;
5245;SDS011;54412;51.206;6.888;2024-01-07T01:00:30;15.40;;;12.40;;
5245;SDS011;54412;51.206;6.888;2024-01-07T01:02:55;14.73;;;11.90;;
5245;SDS011;54412;51.206;6.888;2024-01-07T01:05:21;14.70;;;12.30;;
5245;SDS011;54412;51.206;6.888;2024-01-07T01:07:47;14.93;;;11.63;;
5245;SDS011;54412;51.206;6.888;2024-01-07T01:10:13;16.17;;;12.60;;
5245;SDS011;54412;51.206;6.888;2024-01-07T01:12:42;18.37;;;12.90;;
5245;SDS011;54412;51.206;6.888;2024-01-07T01:15:09;14.07;;;11.80;;
5245;SDS011;54412;51.206;6.888;2024-01-07T01:17:34;17.30;;;13.73;;
5245;SDS011;54412;51.206;6.888;2024-01-07T01:20:00;19.70;;;16.00;;
5245;SDS011;54412;51.206;6.888;2024-01-07T01:22:26;22.37;;;16.13;;
5245;SDS011;54412;51.206;6.888;2024-01-07T01:24:52;19.63;;;15.27;;
5245;SDS011;54412;51.206;6.888;2024-01-07T01:27:18;24.13;;;16.20;;
5245;SDS011;54412;51.206;6.888;2024-01-07T01:29:44;20.27;;;14.60;;
5245;SDS011;54412;51.206;6.888;2024-01-07T01:32:10;19.80;;;15.20;;
5245;SDS011;54412;51.206;6.888;2024-01-07T01:34:36;20.33;;;15.50;;
5245;SDS011;54412;51.206;6.888;2024-01-07T01:37:02;19.03;;;14.67;;
5245;SDS011;54412;51.206;6.888;2024-01-07T01:39:28;18.07;;;14.20;;
5245;SDS011;54412;51.206;6.888;2024-01-07T01:41:54;19.43;;;14.20;;
5245;SDS011;54412;51.206;6.888;2024-01-07T01:44:20;18.17;;;14.00;;
5245;SDS011;54412;51.206;6.888;2024-01-07T01:46:46;17.67;;;13.10;;
5245;SDS011;54412;51.206;6.888;2024-01-07T01:49:13;17.70;;;13.07;;
5245;SDS011;54412;51.206;6.888;2024-01-07T01:51:39;16.30;;;13.60;;
5245;SDS011;54412;51.206;6.888;2024-01-07T01:54:06;17.00;;;13.27;;
5245;SDS011;54412;51.206;6.888;2024-01-07T01:56:32;17.30;;;13.97;;
5245;SDS011;54412;51.206;6.888;2024-01-07T01:58:59;15.87;;;13.63;;
5245;SDS011;54412;51.206;6.888;2024-01-07T02:01:25;17.03;;;12.97;;
5245;SDS011;54412;51.206;6.888;2024-01-07T02:03:51;15.97;;;12.30;;
5245;SDS011;54412;51.206;6.888;2024-01-07T02:06:18;16.73;;;13.27;;
5245;SDS011;54412;51.206;6.888;2024-01-07T02:08:45;15.77;;;12.70;;
5245;SDS011;54412;51.206;6.888;2024-01-07T02:11:18;15.03;;;13.03;;
5245;SDS011;54412;51.206;6.888;2024-01-07T02:13:46;18.53;;;13.57;;
5245;SDS011;54412;51.206;6.888;2024-01-07T02:16:12;16.97;;;13.70;;
5245;SDS011;54412;51.206;6.888;2024-01-07T02:18:41;17.70;;;13.20;;
5245;SDS011;54412;51.206;6.888;2024-01-07T02:21:09;15.53;;;13.20;;
5245;SDS011;54412;51.206;6.888;2024-01-07T02:23:36;16.60;;;12.70;;
5245;SDS011;54412;51.206;6.888;2024-01-07T02:26:02;17.13;;;13.13;;
5245;SDS011;54412;51.206;6.888;2024-01-07T02:28:28;18.30;;;15.00;;
5245;SDS011;54412;51.206;6.888;2024-01-07T02:30:55;16.30;;;12.53;;
5245;SDS011;54412;51.206;6.888;2024-01-07T02:33:20;18.23;;;14.17;;
5245;SDS011;54412;51.206;6.888;2024-01-07T02:35:46;18.93;;;14.70;;
5245;SDS011;54412;51.206;6.888;2024-01-07T02:38:12;18.83;;;15.53;;
5245;SDS011;54412;51.206;6.888;2024-01-07T02:40:38;21.27;;;14.70;;
5245;SDS011;54412;51.206;6.888;2024-01-07T02:43:04;18.53;;;13.57;;
5245;SDS011;54412;51.206;6.888;2024-01-07T02:45:29;17.53;;;14.17;;
5245;SDS011;54412;51.206;6.888;2024-01-07T02:47:55;21.60;;;15.20;;
5245;SDS011;54412;51.206;6.888;2024-01-07T02:50:21;18.57;;;14.10;;
5245;SDS011;54412;51.206;6.888;2024-01-07T02:52:47;18.83;;;13.63;;
5245;SDS011;54412;51.206;6.888;2024-01-07T02:55:13;19.50;;;15.00;;
5245;SDS011;54412;51.206;6.888;2024-01-07T02:57:38;20.30;;;15.17;;
5245;SDS011;54412;51.206;6.888;2024-01-07T03:00:04;18.70;;;14.00;;
5245;SDS011;54412;51.206;6.888;2024-01-07T03:02:31;18.10;;;13.37;;
5245;SDS011;54412;51.206;6.888;2024-01-07T03:04:57;19.10;;;14.47;;
5245;SDS011;54412;51.206;6.888;2024-01-07T03:07:23;20.17;;;14.80;;
5245;SDS011;54412;51.206;6.888;2024-01-07T03:09:48;20.10;;;14.77;;
5245;SDS011;54412;51.206;6.888;2024-01-07T03:12:15;19.10;;;13.67;;
5245;SDS011;54412;51.206;6.888;2024-01-07T03:14:41;20.73;;;14.47;;
5245;SDS011;54412;51.206;6.888;2024-01-07T03:17:07;21.60;;;14.20;;
5245;SDS011;54412;51.206;6.888;2024-01-07T03:19:35;19.17;;;13.40;;
5245;SDS011;54412;51.206;6.888;2024-01-07T03:22:02;19.50;;;13.53;;
5245;SDS011;54412;51.206;6.888;2024-01-07T03:24:28;16.03;;;13.40;;
5245;SDS011;54412;51.206;6.888;2024-01-07T03:26:54;19.70;;;15.10;;
5245;SDS011;54412;51.206;6.888;2024-01-07T03:29:20;20.87;;;14.60;;
5245;SDS011;54412;51.206;6.888;2024-01-07T03:31:45;17.93;;;13.87;;
5245;SDS011;54412;51.206;6.888;2024-01-07T03:34:11;21.67;;;14.33;;
5245;SDS011;54412;51.206;6.888;2024-01-07T03:36:36;17.50;;;12.53;;
5245;SDS011;54412;51.206;6.888;2024-01-07T03:39:02;14.67;;;11.30;;
5245;SDS011;54412;51.206;6.888;2024-01-07T03:41:28;18.37;;;12.50;;
5245;SDS011;54412;51.206;6.888;2024-01-07T03:43:53;15.90;;;11.73;;
5245;SDS011;54412;51.206;6.888;2024-01-07T03:46:20;15.93;;;12.33;;
5245;SDS011;54412;51.206;6.888;2024-01-07T03:48:45;14.97;;;11.80;;
5245;SDS011;54412;51.206;6.888;2024-01-07T03:51:11;17.67;;;13.13;;
5245;SDS011;54412;51.206;6.888;2024-01-07T03:53:37;18.40;;;14.00;;
5245;SDS011;54412;51.206;6.888;2024-01-07T03:56:02;18.97;;;13.77;;
5245;SDS011;54412;51.206;6.888;2024-01-07T03:58:28;18.60;;;14.00;;
5245;SDS011;54412;51.206;6.888;2024-01-07T04:00:54;15.63;;;12.60;;
5245;SDS011;54412;51.206;6.888;2024-01-07T04:03:20;16.57;;;13.13;;
5245;SDS011;54412;51.206;6.888;2024-01-07T04:05:45;20.73;;;14.20;;
5245;SDS011;54412;51.206;6.888;2024-01-07T04:08:11;18.20;;;14.10;;
5245;SDS011;54412;51.206;6.888;2024-01-07T04:10:37;22.03;;;15.10;;
5245;SDS011;54412;51.206;6.888;2024-01-07T04:13:06;23.87;;;17.00;;
5245;SDS011;54412;51.206;6.888;2024-01-07T04:15:32;21.93;;;16.17;;
5245;SDS011;54412;51.206;6.888;2024-01-07T04:18:00;19.67;;;15.37;;
5245;SDS011;54412;51.206;6.888;2024-01-07T04:20:28;22.17;;;16.30;;
5245;SDS011;54412;51.206;6.888;2024-01-07T04:22:54;23.83;;;18.17;;
5245;SDS011;54412;51.206;6.888;2024-01-07T04:25:20;25.30;;;18.40;;
5245;SDS011;54412;51.206;6.888;2024-01-07T04:27:46;24.50;;;18.37;;
5245;SDS011;54412;51.206;6.888;2024-01-07T04:30:11;25.33;;;17.40;;
5245;SDS011;54412;51.206;6.888;2024-01-07T04:32:37;24.50;;;17.50;;
5245;SDS011;54412;51.206;6.888;2024-01-07T04:35:03;26.63;;;18.17;;
5245;SDS011;54412;51.206;6.888;2024-01-07T04:37:29;25.93;;;17.10;;
5245;SDS011;54412;51.206;6.888;2024-01-07T04:39:55;22.10;;;15.50;;
5245;SDS011;54412;51.206;6.888;2024-01-07T04:42:20;24.97;;;17.07;;
5245;SDS011;54412;51.206;6.888;2024-01-07T04:44:46;22.83;;;16.73;;
5245;SDS011;54412;51.206;6.888;2024-01-07T04:47:28;21.20;;;16.23;;
5245;SDS011;54412;51.206;6.888;2024-01-07T04:49:56;22.77;;;16.60;;
5245;SDS011;54412;51.206;6.888;2024-01-07T04:52:23;21.77;;;17.30;;
5245;SDS011;54412;51.206;6.888;2024-01-07T04:54:50;23.30;;;19.27;;
5245;SDS011;54412;51.206;6.888;2024-01-07T04:57:17;24.50;;;19.30;;
5245;SDS011;54412;51.206;6.888;2024-01-07T04:59:43;27.03;;;20.83;;
5245;SDS011;54412;51.206;6.888;2024-01-07T05:02:10;27.77;;;21.27;;
5245;SDS011;54412;51.206;6.888;2024-01-07T05:04:36;28.33;;;20.70;;
5245;SDS011;54412;51.206;6.888;2024-01-07T05:07:02;26.20;;;21.83;;
5245;SDS011;54412;51.206;6.888;2024-01-07T05:09:28;29.23;;;21.93;;
5245;SDS011;54412;51.206;6.888;2024-01-07T05:11:54;26.03;;;20.27;;
5245;SDS011;54412;51.206;6.888;2024-01-07T05:14:20;21.87;;;18.27;;
5245;SDS011;54412;51.206;6.888;2024-01-07T05:16:47;23.70;;;19.30;;
5245;SDS011;54412;51.206;6.888;2024-01-07T05:19:13;23.27;;;18.63;;
5245;SDS011;54412;51.206;6.888;2024-01-07T05:21:39;24.83;;;18.93;;
5245;SDS011;54412;51.206;6.888;2024-01-07T05:24:05;21.50;;;16.90;;
5245;SDS011;54412;51.206;6.888;2024-01-07T05:26:31;20.77;;;15.40;;
5245;SDS011;54412;51.206;6.888;2024-01-07T05:29:03;21.80;;;17.00;;
5245;SDS011;54412;51.206;6.888;2024-01-07T05:31:29;22.20;;;17.90;;
5245;SDS011;54412;51.206;6.888;2024-01-07T05:33:54;21.03;;;17.43;;
5245;SDS011;54412;51.206;6.888;2024-01-07T05:36:20;21.77;;;17.83;;
5245;SDS011;54412;51.206;6.888;2024-01-07T05:38:46;21.90;;;17.27;;
5245;SDS011;54412;51.206;6.888;2024-01-07T05:41:12;24.60;;;17.60;;
5245;SDS011;54412;51.206;6.888;2024-01-07T05:43:37;24.07;;;18.70;;
5245;SDS011;54412;51.206;6.888;2024-01-07T05:46:03;19.00;;;16.20;;
5245;SDS011;54412;51.206;6.888;2024-01-07T05:48:29;24.47;;;19.67;;
5245;SDS011;54412;51.206;6.888;2024-01-07T05:50:54;24.77;;;18.60;;
5245;SDS011;54412;51.206;6.888;2024-01-07T05:53:20;22.30;;;18.70;;
5245;SDS011;54412;51.206;6.888;2024-01-07T05:55:46;26.13;;;18.60;;
5245;SDS011;54412;51.206;6.888;2024-01-07T05:58:11;25.50;;;20.30;;
5245;SDS011;54412;51.206;6.888;2024-01-07T06:00:37;24.80;;;19.87;;
5245;SDS011;54412;51.206;6.888;2024-01-07T06:03:03;25.47;;;20.00;;
5245;SDS011;54412;51.206;6.888;2024-01-07T06:05:29;22.73;;;18.70;;
5245;SDS011;54412;51.206;6.888;2024-01-07T06:07:55;22.37;;;16.90;;
5245;SDS011;54412;51.206;6.888;2024-01-07T06:10:20;24.40;;;18.70;;
5245;SDS011;54412;51.206;6.888;2024-01-07T06:12:46;22.20;;;17.10;;
5245;SDS011;54412;51.206;6.888;2024-01-07T06:15:12;22.93;;;16.67;;
5245;SDS011;54412;51.206;6.888;2024-01-07T06:17:37;22.47;;;16.40;;
5245;SDS011;54412;51.206;6.888;2024-01-07T06:20:03;24.73;;;17.90;;
5245;SDS011;54412;51.206;6.888;2024-01-07T06:22:30;23.33;;;17.23;;
5245;SDS011;54412;51.206;6.888;2024-01-07T06:24:56;27.33;;;18.97;;
5245;SDS011;54412;51.206;6.888;2024-01-07T06:27:22;23.33;;;17.03;;
5245;SDS011;54412;51.206;6.888;2024-01-07T06:29:47;23.67;;;16.47;;
5245;SDS011;54412;51.206;6.888;2024-01-07T06:32:13;21.70;;;17.57;;
5245;SDS011;54412;51.206;6.888;2024-01-07T06:34:39;26.57;;;18.63;;
5245;SDS011;54412;51.206;6.888;2024-01-07T06:37:04;24.93;;;17.43;;
5245;SDS011;54412;51.206;6.888;2024-01-07T06:39:32;18.03;;;15.03;;
5245;SDS011;54412;51.206;6.888;2024-01-07T06:41:59;17.83;;;14.67;;
5245;SDS011;54412;51.206;6.888;2024-01-07T06:44:24;20.77;;;14.80;;
5245;SDS011;54412;51.206;6.888;2024-01-07T06:46:50;20.20;;;15.50;;
5245;SDS011;54412;51.206;6.888;2024-01-07T06:49:16;18.53;;;15.63;;
5245;SDS011;54412;51.206;6.888;2024-01-07T06:51:41;18.40;;;14.77;;
5245;SDS011;54412;51.206;6.888;2024-01-07T06:54:07;21.77;;;15.50;;
5245;SDS011;54412;51.206;6.888;2024-01-07T06:56:33;19.33;;;15.10;;
5245;SDS011;54412;51.206;6.888;2024-01-07T06:58:58;19.57;;;15.97;;
5245;SDS011;54412;51.206;6.888;2024-01-07T07:01:25;21.03;;;15.40;;
5245;SDS011;54412;51.206;6.888;2024-01-07T07:03:50;21.20;;;15.70;;
5245;SDS011;54412;51.206;6.888;2024-01-07T07:06:16;23.80;;;17.47;;
5245;SDS011;54412;51.206;6.888;2024-01-07T07:08:42;23.27;;;16.90;;
5245;SDS011;54412;51.206;6.888;2024-01-07T07:11:08;23.73;;;18.07;;
5245;SDS011;54412;51.206;6.888;2024-01-07T07:13:34;22.10;;;16.93;;
5245;SDS011;54412;51.206;6.888;2024-01-07T07:16:00;22.37;;;17.53;;
5245;SDS011;54412;51.206;6.888;2024-01-07T07:18:25;21.73;;;17.27;;
5245;SDS011;54412;51.206;6.888;2024-01-07T07:20:51;22.23;;;16.60;;
5245;SDS011;54412;51.206;6.888;2024-01-07T07:23:17;22.20;;;17.03;;
5245;SDS011;54412;51.206;6.888;2024-01-07T07:25:43;23.70;;;18.13;;
5245;SDS011;54412;51.206;6.888;2024-01-07T07:28:09;24.27;;;17.90;;
5245;SDS011;54412;51.206;6.888;2024-01-07T07:30:35;21.90;;;17.50;;
5245;SDS011;54412;51.206;6.888;2024-01-07T07:33:01;24.70;;;17.83;;
5245;SDS011;54412;51.206;6.888;2024-01-07T07:35:27;21.17;;;17.10;;
5245;SDS011;54412;51.206;6.888;2024-01-07T07:37:53;22.80;;;18.00;;
5245;SDS011;54412;51.206;6.888;2024-01-07T07:40:19;25.37;;;16.67;;
5245;SDS011;54412;51.206;6.888;2024-01-07T07:42:44;24.40;;;17.07;;
5245;SDS011;54412;51.206;6.888;2024-01-07T07:45:10;22.23;;;17.77;;
5245;SDS011;54412;51.206;6.888;2024-01-07T07:47:36;23.27;;;17.90;;
5245;SDS011;54412;51.206;6.888;2024-01-07T07:50:02;22.93;;;17.53;;
5245;SDS011;54412;51.206;6.888;2024-01-07T07:52:28;22.93;;;17.53;;
5245;SDS011;54412;51.206;6.888;2024-01-07T07:54:54;25.80;;;18.80;;
5245;SDS011;54412;51.206;6.888;2024-01-07T07:57:20;24.63;;;18.13;;
5245;SDS011;54412;51.206;6.888;2024-01-07T07:59:47;29.30;;;18.80;;
5245;SDS011;54412;51.206;6.888;2024-01-07T08:02:14;25.23;;;18.47;;
5245;SDS011;54412;51.206;6.888;2024-01-07T08:04:39;25.27;;;19.87;;
5245;SDS011;54412;51.206;6.888;2024-01-07T08:07:07;24.30;;;18.63;;
5245;SDS011;54412;51.206;6.888;2024-01-07T08:09:34;23.53;;;17.73;;
5245;SDS011;54412;51.206;6.888;2024-01-07T08:12:02;25.23;;;18.30;;
5245;SDS011;54412;51.206;6.888;2024-01-07T08:14:29;23.30;;;18.83;;
5245;SDS011;54412;51.206;6.888;2024-01-07T08:16:56;23.83;;;19.20;;
5245;SDS011;54412;51.206;6.888;2024-01-07T08:19:22;22.80;;;17.50;;
5245;SDS011;54412;51.206;6.888;2024-01-07T08:21:47;24.90;;;18.37;;
5245;SDS011;54412;51.206;6.888;2024-01-07T08:24:13;23.97;;;18.23;;
5245;SDS011;54412;51.206;6.888;2024-01-07T08:26:39;23.67;;;17.80;;
5245;SDS011;54412;51.206;6.888;2024-01-07T08:29:04;26.30;;;20.20;;
5245;SDS011;54412;51.206;6.888;2024-01-07T08:31:30;26.07;;;18.47;;
5245;SDS011;54412;51.206;6.888;2024-01-07T08:33:56;21.87;;;17.20;;
5245;SDS011;54412;51.206;6.888;2024-01-07T08:36:22;22.50;;;17.47;;
5245;SDS011;54412;51.206;6.888;2024-01-07T08:38:48;25.90;;;18.13;;
5245;SDS011;54412;51.206;6.888;2024-01-07T08:41:17;22.70;;;17.50;;
5245;SDS011;54412;51.206;6.888;2024-01-07T08:43:43;22.97;;;17.43;;
5245;SDS011;54412;51.206;6.888;2024-01-07T08:46:10;22.70;;;17.50;;
5245;SDS011;54412;51.206;6.888;2024-01-07T08:48:38;27.37;;;16.60;;
5245;SDS011;54412;51.206;6.888;2024-01-07T08:51:04;20.23;;;17.07;;
5245;SDS011;54412;51.206;6.888;2024-01-07T08:53:30;25.23;;;17.60;;
5245;SDS011;54412;51.206;6.888;2024-01-07T08:55:57;23.27;;;17.57;;
5245;SDS011;54412;51.206;6.888;2024-01-07T08:58:23;19.80;;;15.50;;
5245;SDS011;54412;51.206;6.888;2024-01-07T09:00:49;17.23;;;13.17;;
5245;SDS011;54412;51.206;6.888;2024-01-07T09:03:14;15.80;;;12.53;;
5245;SDS011;54412;51.206;6.888;2024-01-07T09:05:40;13.27;;;11.90;;
5245;SDS011;54412;51.206;6.888;2024-01-07T09:08:06;13.90;;;11.90;;
5245;SDS011;54412;51.206;6.888;2024-01-07T09:10:32;12.80;;;11.10;;
5245;SDS011;54412;51.206;6.888;2024-01-07T09:12:58;10.87;;;9.77;;
5245;SDS011;54412;51.206;6.888;2024-01-07T09:15:25;11.43;;;8.93;;
5245;SDS011;54412;51.206;6.888;2024-01-07T09:17:50;10.50;;;8.70;;
5245;SDS011;54412;51.206;6.888;2024-01-07T09:20:16;10.30;;;9.17;;
5245;SDS011;54412;51.206;6.888;2024-01-07T09:22:42;10.47;;;8.57;;
5245;SDS011;54412;51.206;6.888;2024-01-07T09:25:08;10.00;;;8.90;;
5245;SDS011;54412;51.206;6.888;2024-01-07T09:27:35;10.30;;;9.20;;
5245;SDS011;54412;51.206;6.888;2024-01-07T09:30:00;10.80;;;9.70;;
5245;SDS011;54412;51.206;6.888;2024-01-07T09:32:27;11.83;;;10.73;;
5245;SDS011;54412;51.206;6.888;2024-01-07T09:34:52;12.03;;;10.83;;
5245;SDS011;54412;51.206;6.888;2024-01-07T09:37:18;12.30;;;10.77;;
5245;SDS011;54412;51.206;6.888;2024-01-07T09:39:45;12.00;;;10.80;;
5245;SDS011;54412;51.206;6.888;2024-01-07T09:42:14;12.37;;;10.53;;
5245;SDS011;54412;51.206;6.888;2024-01-07T09:44:42;13.00;;;10.00;;
5245;SDS011;54412;51.206;6.888;2024-01-07T09:47:12;10.50;;;9.50;;
5245;SDS011;54412;51.206;6.888;2024-01-07T09:49:39;13.37;;;9.83;;
5245;SDS011;54412;51.206;6.888;2024-01-07T09:52:07;11.20;;;10.00;;
5245;SDS011;54412;51.206;6.888;2024-01-07T09:54:36;11.33;;;10.07;;
5245;SDS011;54412;51.206;6.888;2024-01-07T09:57:04;13.93;;;10.60;;
5245;SDS011;54412;51.206;6.888;2024-01-07T09:59:34;11.77;;;10.57;;
5245;SDS011;54412;51.206;6.888;2024-01-07T10:02:04;13.33;;;11.27;;
5245;SDS011;54412;51.206;6.888;2024-01-07T10:04:29;14.40;;;11.27;;
5245;SDS011;54412;51.206;6.888;2024-01-07T10:06:56;14.37;;;11.40;;
5245;SDS011;54412;51.206;6.888;2024-01-07T10:09:22;14.80;;;12.50;;
5245;SDS011;54412;51.206;6.888;2024-01-07T10:11:51;12.40;;;10.40;;
5245;SDS011;54412;51.206;6.888;2024-01-07T10:14:17;13.37;;;10.70;;
5245;SDS011;54412;51.206;6.888;2024-01-07T10:16:44;13.50;;;10.97;;
5245;SDS011;54412;51.206;6.888;2024-01-07T10:19:10;13.23;;;11.03;;
5245;SDS011;54412;51.206;6.888;2024-01-07T10:21:36;13.40;;;11.53;;
5245;SDS011;54412;51.206;6.888;2024-01-07T10:24:08;13.00;;;10.47;;
5245;SDS011;54412;51.206;6.888;2024-01-07T10:26:38;13.83;;;10.93;;
5245;SDS011;54412;51.206;6.888;2024-01-07T10:29:05;13.13;;;10.77;;
5245;SDS011;54412;51.206;6.888;2024-01-07T10:31:33;13.83;;;10.50;;
5245;SDS011;54412;51.206;6.888;2024-01-07T10:33:59;12.63;;;10.33;;
5245;SDS011;54412;51.206;6.888;2024-01-07T10:36:25;10.40;;;9.23;;
5245;SDS011;54412;51.206;6.888;2024-01-07T10:38:51;11.43;;;10.07;;
5245;SDS011;54412;51.206;6.888;2024-01-07T10:41:18;11.20;;;10.00;;
5245;SDS011;54412;51.206;6.888;2024-01-07T10:43:47;10.50;;;9.13;;
5245;SDS011;54412;51.206;6.888;2024-01-07T10:46:14;11.93;;;9.93;;
5245;SDS011;54412;51.206;6.888;2024-01-07T10:48:45;12.50;;;9.73;;
5245;SDS011;54412;51.206;6.888;2024-01-07T10:51:20;9.67;;;7.90;;
5245;SDS011;54412;51.206;6.888;2024-01-07T10:53:50;10.87;;;8.67;;
5245;SDS011;54412;51.206;6.888;2024-01-07T10:56:24;10.37;;;9.17;;
5245;SDS011;54412;51.206;6.888;2024-01-07T10:59:03;10.50;;;8.70;;
5245;SDS011;54412;51.206;6.888;2024-01-07T11:01:29;11.00;;;9.10;;
5245;SDS011;54412;51.206;6.888;2024-01-07T11:03:57;13.10;;;10.30;;
5245;SDS011;54412;51.206;6.888;2024-01-07T11:06:44;12.80;;;10.13;;
5245;SDS011;54412;51.206;6.888;2024-01-07T11:12:10;11.33;;;9.00;;
5245;SDS011;54412;51.206;6.888;2024-01-07T11:14:40;11.80;;;8.40;;
5245;SDS011;54412;51.206;6.888;2024-01-07T11:17:10;10.10;;;8.47;;
5245;SDS011;54412;51.206;6.888;2024-01-07T11:19:38;9.33;;;8.33;;
5245;SDS011;54412;51.206;6.888;2024-01-07T11:22:22;9.80;;;7.97;;
5245;SDS011;54412;51.206;6.888;2024-01-07T11:24:52;10.17;;;7.90;;
5245;SDS011;54412;51.206;6.888;2024-01-07T11:27:21;8.30;;;7.50;;
5245;SDS011;54412;51.206;6.888;2024-01-07T11:29:55;11.00;;;8.10;;
5245;SDS011;54412;51.206;6.888;2024-01-07T11:32:22;9.97;;;7.43;;
5245;SDS011;54412;51.206;6.888;2024-01-07T11:34:53;7.97;;;7.00;;
5245;SDS011;54412;51.206;6.888;2024-01-07T11:37:21;8.23;;;7.43;;
5245;SDS011;54412;51.206;6.888;2024-01-07T11:39:48;8.93;;;7.20;;
5245;SDS011;54412;51.206;6.888;2024-01-07T11:42:16;9.13;;;7.00;;
5245;SDS011;54412;51.206;6.888;2024-01-07T11:44:48;8.57;;;6.77;;
5245;SDS011;54412;51.206;6.888;2024-01-07T11:47:21;8.83;;;7.03;;
5245;SDS011;54412;51.206;6.888;2024-01-07T11:49:49;11.33;;;7.07;;
5245;SDS011;54412;51.206;6.888;2024-01-07T11:52:14;8.93;;;6.60;;
5245;SDS011;54412;51.206;6.888;2024-01-07T11:54:40;8.40;;;6.23;;
5245;SDS011;54412;51.206;6.888;2024-01-07T11:57:06;7.10;;;6.40;;
5245;SDS011;54412;51.206;6.888;2024-01-07T11:59:33;7.67;;;6.13;;
5245;SDS011;54412;51.206;6.888;2024-01-07T12:02:00;8.10;;;6.30;;
5245;SDS011;54412;51.206;6.888;2024-01-07T12:04:26;9.53;;;5.87;;
5245;SDS011;54412;51.206;6.888;2024-01-07T12:06:53;6.93;;;5.70;;
5245;SDS011;54412;51.206;6.888;2024-01-07T12:09:19;7.27;;;5.90;;
5245;SDS011;54412;51.206;6.888;2024-01-07T12:11:44;7.93;;;5.83;;
5245;SDS011;54412;51.206;6.888;2024-01-07T12:14:11;6.37;;;5.77;;
5245;SDS011;54412;51.206;6.888;2024-01-07T12:16:37;8.93;;;6.37;;
5245;SDS011;54412;51.206;6.888;2024-01-07T12:19:03;11.17;;;5.97;;
5245;SDS011;54412;51.206;6.888;2024-01-07T12:21:29;7.50;;;6.13;;
5245;SDS011;54412;51.206;6.888;2024-01-07T12:23:55;6.47;;;5.63;;
5245;SDS011;54412;51.206;6.888;2024-01-07T12:26:25;15.53;;;7.83;;
5245;SDS011;54412;51.206;6.888;2024-01-07T12:28:53;6.43;;;5.80;;
5245;SDS011;54412;51.206;6.888;2024-01-07T12:31:24;8.33;;;6.13;;
5245;SDS011;54412;51.206;6.888;2024-01-07T12:33:51;5.60;;;5.07;;
5245;SDS011;54412;51.206;6.888;2024-01-07T12:36:21;7.63;;;5.70;;
5245;SDS011;54412;51.206;6.888;2024-01-07T12:38:48;8.20;;;5.50;;
5245;SDS011;54412;51.206;6.888;2024-01-07T12:41:16;5.50;;;5.10;;
5245;SDS011;54412;51.206;6.888;2024-01-07T12:43:42;6.43;;;5.30;;
5245;SDS011;54412;51.206;6.888;2024-01-07T12:46:08;6.27;;;4.90;;
5245;SDS011;54412;51.206;6.888;2024-01-07T12:48:34;5.10;;;4.70;;
5245;SDS011;54412;51.206;6.888;2024-01-07T12:51:00;5.77;;;4.77;;
5245;SDS011;54412;51.206;6.888;2024-01-07T12:53:26;7.83;;;4.90;;
5245;SDS011;54412;51.206;6.888;2024-01-07T12:55:52;5.60;;;4.97;;
5245;SDS011;54412;51.206;6.888;2024-01-07T12:58:18;5.10;;;4.63;;
5245;SDS011;54412;51.206;6.888;2024-01-07T13:00:45;6.03;;;5.43;;
5245;SDS011;54412;51.206;6.888;2024-01-07T13:03:12;5.07;;;4.67;;
5245;SDS011;54412;51.206;6.888;2024-01-07T13:05:44;6.50;;;5.83;;
5245;SDS011;54412;51.206;6.888;2024-01-07T13:08:14;7.00;;;5.67;;
5245;SDS011;54412;51.206;6.888;2024-01-07T13:10:39;6.77;;;5.97;;
5245;SDS011;54412;51.206;6.888;2024-01-07T13:13:06;6.97;;;5.63;;
5245;SDS011;54412;51.206;6.888;2024-01-07T13:15:34;5.60;;;4.60;;
5245;SDS011;54412;51.206;6.888;2024-01-07T13:18:00;5.33;;;4.73;;
5245;SDS011;54412;51.206;6.888;2024-01-07T13:20:26;6.23;;;5.13;;
5245;SDS011;54412;51.206;6.888;2024-01-07T13:22:52;5.53;;;5.03;;
5245;SDS011;54412;51.206;6.888;2024-01-07T13:25:17;4.73;;;4.37;;
5245;SDS011;54412;51.206;6.888;2024-01-07T13:27:43;5.30;;;4.77;;
5245;SDS011;54412;51.206;6.888;2024-01-07T13:30:09;5.70;;;4.83;;
5245;SDS011;54412;51.206;6.888;2024-01-07T13:32:36;6.20;;;4.03;;
5245;SDS011;54412;51.206;6.888;2024-01-07T13:35:05;5.27;;;4.77;;
5245;SDS011;54412;51.206;6.888;2024-01-07T13:37:35;5.70;;;5.17;;
5245;SDS011;54412;51.206;6.888;2024-01-07T13:40:02;5.07;;;4.60;;
5245;SDS011;54412;51.206;6.888;2024-01-07T13:42:28;4.63;;;4.23;;
5245;SDS011;54412;51.206;6.888;2024-01-07T13:44:54;6.40;;;4.40;;
5245;SDS011;54412;51.206;6.888;2024-01-07T13:47:20;4.80;;;4.30;;
5245;SDS011;54412;51.206;6.888;2024-01-07T13:49:46;9.00;;;4.50;;
5245;SDS011;54412;51.206;6.888;2024-01-07T13:52:12;5.70;;;4.40;;
5245;SDS011;54412;51.206;6.888;2024-01-07T13:54:38;5.40;;;4.90;;
5245;SDS011;54412;51.206;6.888;2024-01-07T13:57:04;4.23;;;3.90;;
5245;SDS011;54412;51.206;6.888;2024-01-07T13:59:30;4.20;;;3.77;;
5245;SDS011;54412;51.206;6.888;2024-01-07T14:01:55;4.23;;;3.90;;
5245;SDS011;54412;51.206;6.888;2024-01-07T14:04:22;4.50;;;4.10;;
5245;SDS011;54412;51.206;6.888;2024-01-07T14:06:58;4.50;;;4.10;;
5245;SDS011;54412;51.206;6.888;2024-01-07T14:09:24;5.50;;;4.30;;
5245;SDS011;54412;51.206;6.888;2024-01-07T14:11:50;4.17;;;3.87;;
5245;SDS011;54412;51.206;6.888;2024-01-07T14:14:17;4.00;;;3.60;;
5245;SDS011;54412;51.206;6.888;2024-01-07T14:16:44;3.50;;;3.30;;
5245;SDS011;54412;51.206;6.888;2024-01-07T14:19:10;3.30;;;3.07;;
5245;SDS011;54412;51.206;6.888;2024-01-07T14:21:37;3.80;;;3.50;;
5245;SDS011;54412;51.206;6.888;2024-01-07T14:24:03;4.03;;;3.40;;
5245;SDS011;54412;51.206;6.888;2024-01-07T14:26:29;3.20;;;2.83;;
5245;SDS011;54412;51.206;6.888;2024-01-07T14:28:54;4.27;;;2.90;;
5245;SDS011;54412;51.206;6.888;2024-01-07T14:31:20;3.53;;;3.20;;
5245;SDS011;54412;51.206;6.888;2024-01-07T14:33:46;2.70;;;2.50;;
5245;SDS011;54412;51.206;6.888;2024-01-07T14:36:12;3.20;;;2.70;;
5245;SDS011;54412;51.206;6.888;2024-01-07T14:38:44;4.83;;;3.57;;
5245;SDS011;54412;51.206;6.888;2024-01-07T14:41:12;3.00;;;2.80;;